sensor_id;sensor_type;location;lat;lon;timestamp;P1;durP1;ratioP1;P2;durP2;ratioP2
17598;SDS011;8918;52.092;5.232;2023-04-24T00:00:32;2.07;;;1.10;;
17598;SDS011;8918;52.092;5.232;2023-04-24T00:02:57;1.77;;;1.27;;
17598;SDS011;8918;52.092;5.232;2023-04-24T00:05:23;3.03;;;1.30;;
17598;SDS011;8918;52.092;5.232;2023-04-24T00:07:49;1.50;;;1.40;;
17598;SDS011;8918;52.092;5.232;2023-04-24T00:10:18;2.30;;;2.07;;
17598;SDS011;8918;52.092;5.232;2023-04-24T00:12:44;2.50;;;2.20;;
17598;SDS011;8918;52.092;5.232;2023-04-24T00:15:09;3.43;;;2.70;;
17598;SDS011;8918;52.092;5.232;2023-04-24T00:17:35;3.67;;;2.50;;
17598;SDS011;8918;52.092;5.232;2023-04-24T00:20:01;2.97;;;2.60;;
17598;SDS011;8918;52.092;5.232;2023-04-24T00:22:29;4.23;;;2.43;;
17598;SDS011;8918;52.092;5.232;2023-04-24T00:24:56;2.57;;;2.37;;
17598;SDS011;8918;52.092;5.232;2023-04-24T00:27:22;2.80;;;2.60;;
17598;SDS011;8918;52.092;5.232;2023-04-24T00:29:48;2.77;;;2.50;;
17598;SDS011;8918;52.092;5.232;2023-04-24T00:32:14;2.83;;;2.53;;
17598;SDS011;8918;52.092;5.232;2023-04-24T00:34:40;2.87;;;2.63;;
17598;SDS011;8918;52.092;5.232;2023-04-24T00:37:06;3.10;;;2.80;;
17598;SDS011;8918;52.092;5.232;2023-04-24T00:39:31;4.47;;;2.77;;
17598;SDS011;8918;52.092;5.232;2023-04-24T00:41:57;3.70;;;3.40;;
17598;SDS011;8918;52.092;5.232;2023-04-24T00:44:24;3.43;;;3.10;;
17598;SDS011;8918;52.092;5.232;2023-04-24T00:46:50;4.00;;;3.57;;
17598;SDS011;8918;52.092;5.232;2023-04-24T00:49:19;4.20;;;3.80;;
17598;SDS011;8918;52.092;5.232;2023-04-24T00:51:48;4.83;;;4.07;;
17598;SDS011;8918;52.092;5.232;2023-04-24T00:54:14;4.47;;;3.97;;
17598;SDS011;8918;52.092;5.232;2023-04-24T00:56:40;6.23;;;4.63;;
17598;SDS011;8918;52.092;5.232;2023-04-24T00:59:07;5.73;;;4.47;;
17598;SDS011;8918;52.092;5.232;2023-04-24T01:01:33;5.30;;;4.80;;
17598;SDS011;8918;52.092;5.232;2023-04-24T01:03:59;6.27;;;4.70;;
17598;SDS011;8918;52.092;5.232;2023-04-24T01:06:27;5.13;;;4.63;;
17598;SDS011;8918;52.092;5.232;2023-04-24T01:08:53;5.70;;;5.07;;
17598;SDS011;8918;52.092;5.232;2023-04-24T01:11:20;8.07;;;5.30;;
17598;SDS011;8918;52.092;5.232;2023-04-24T01:13:46;6.10;;;5.00;;
17598;SDS011;8918;52.092;5.232;2023-04-24T01:16:13;6.93;;;5.40;;
17598;SDS011;8918;52.092;5.232;2023-04-24T01:18:40;6.97;;;4.97;;
17598;SDS011;8918;52.092;5.232;2023-04-24T01:21:06;6.17;;;5.40;;
17598;SDS011;8918;52.092;5.232;2023-04-24T01:23:34;6.93;;;5.40;;
17598;SDS011;8918;52.092;5.232;2023-04-24T01:26:00;6.27;;;5.67;;
17598;SDS011;8918;52.092;5.232;2023-04-24T01:28:25;6.77;;;5.67;;
17598;SDS011;8918;52.092;5.232;2023-04-24T01:30:51;6.60;;;5.47;;
17598;SDS011;8918;52.092;5.232;2023-04-24T01:33:18;7.80;;;6.03;;
17598;SDS011;8918;52.092;5.232;2023-04-24T01:35:46;8.70;;;5.50;;
17598;SDS011;8918;52.092;5.232;2023-04-24T01:38:13;7.30;;;5.30;;
17598;SDS011;8918;52.092;5.232;2023-04-24T01:40:38;7.27;;;5.30;;
17598;SDS011;8918;52.092;5.232;2023-04-24T01:43:04;7.40;;;4.97;;
17598;SDS011;8918;52.092;5.232;2023-04-24T01:45:30;7.37;;;5.53;;
17598;SDS011;8918;52.092;5.232;2023-04-24T01:47:56;6.30;;;4.97;;
17598;SDS011;8918;52.092;5.232;2023-04-24T01:50:22;7.03;;;5.33;;
17598;SDS011;8918;52.092;5.232;2023-04-24T01:52:48;8.37;;;5.33;;
17598;SDS011;8918;52.092;5.232;2023-04-24T01:55:13;5.83;;;5.20;;
17598;SDS011;8918;52.092;5.232;2023-04-24T01:57:39;6.27;;;5.00;;
17598;SDS011;8918;52.092;5.232;2023-04-24T02:00:05;5.43;;;4.90;;
17598;SDS011;8918;52.092;5.232;2023-04-24T02:02:32;5.57;;;4.73;;
17598;SDS011;8918;52.092;5.232;2023-04-24T02:04:57;4.00;;;3.20;;
17598;SDS011;8918;52.092;5.232;2023-04-24T02:07:23;3.90;;;3.50;;
17598;SDS011;8918;52.092;5.232;2023-04-24T02:09:49;5.47;;;3.67;;
17598;SDS011;8918;52.092;5.232;2023-04-24T02:12:14;4.30;;;3.50;;
17598;SDS011;8918;52.092;5.232;2023-04-24T02:14:41;4.63;;;4.17;;
17598;SDS011;8918;52.092;5.232;2023-04-24T02:17:07;6.20;;;4.50;;
17598;SDS011;8918;52.092;5.232;2023-04-24T02:19:33;4.60;;;3.97;;
17598;SDS011;8918;52.092;5.232;2023-04-24T02:21:58;6.50;;;4.13;;
17598;SDS011;8918;52.092;5.232;2023-04-24T02:24:24;4.80;;;4.23;;
17598;SDS011;8918;52.092;5.232;2023-04-24T02:26:49;6.83;;;4.23;;
17598;SDS011;8918;52.092;5.232;2023-04-24T02:29:15;5.10;;;4.37;;
17598;SDS011;8918;52.092;5.232;2023-04-24T02:31:41;5.27;;;3.97;;
17598;SDS011;8918;52.092;5.232;2023-04-24T02:34:06;5.43;;;4.47;;
17598;SDS011;8918;52.092;5.232;2023-04-24T02:36:33;6.20;;;4.43;;
17598;SDS011;8918;52.092;5.232;2023-04-24T02:38:58;4.87;;;4.20;;
17598;SDS011;8918;52.092;5.232;2023-04-24T02:41:24;6.40;;;4.33;;
17598;SDS011;8918;52.092;5.232;2023-04-24T02:43:50;5.13;;;3.97;;
17598;SDS011;8918;52.092;5.232;2023-04-24T02:46:15;4.87;;;4.33;;
17598;SDS011;8918;52.092;5.232;2023-04-24T02:48:41;5.03;;;4.10;;
17598;SDS011;8918;52.092;5.232;2023-04-24T02:51:06;5.37;;;4.33;;
17598;SDS011;8918;52.092;5.232;2023-04-24T02:53:32;6.30;;;3.97;;
17598;SDS011;8918;52.092;5.232;2023-04-24T02:55:58;5.03;;;3.97;;
17598;SDS011;8918;52.092;5.232;2023-04-24T02:58:23;5.93;;;4.57;;
17598;SDS011;8918;52.092;5.232;2023-04-24T03:00:52;5.20;;;4.40;;
17598;SDS011;8918;52.092;5.232;2023-04-24T03:03:19;6.00;;;4.37;;
17598;SDS011;8918;52.092;5.232;2023-04-24T03:05:45;5.17;;;4.53;;
17598;SDS011;8918;52.092;5.232;2023-04-24T03:08:10;7.83;;;5.03;;
17598;SDS011;8918;52.092;5.232;2023-04-24T03:10:36;6.57;;;5.17;;
17598;SDS011;8918;52.092;5.232;2023-04-24T03:13:01;7.97;;;4.93;;
17598;SDS011;8918;52.092;5.232;2023-04-24T03:15:27;7.70;;;5.50;;
17598;SDS011;8918;52.092;5.232;2023-04-24T03:17:52;5.57;;;4.93;;
17598;SDS011;8918;52.092;5.232;2023-04-24T03:20:18;6.70;;;4.40;;
17598;SDS011;8918;52.092;5.232;2023-04-24T03:22:44;5.17;;;4.63;;
17598;SDS011;8918;52.092;5.232;2023-04-24T03:25:09;6.30;;;4.43;;
17598;SDS011;8918;52.092;5.232;2023-04-24T03:27:35;8.70;;;5.47;;
17598;SDS011;8918;52.092;5.232;2023-04-24T03:30:01;9.27;;;6.10;;
17598;SDS011;8918;52.092;5.232;2023-04-24T03:32:27;8.37;;;6.30;;
17598;SDS011;8918;52.092;5.232;2023-04-24T03:34:52;8.47;;;6.13;;
17598;SDS011;8918;52.092;5.232;2023-04-24T03:37:18;8.10;;;5.93;;
17598;SDS011;8918;52.092;5.232;2023-04-24T03:39:43;7.23;;;5.63;;
17598;SDS011;8918;52.092;5.232;2023-04-24T03:42:09;6.53;;;5.30;;
17598;SDS011;8918;52.092;5.232;2023-04-24T03:44:35;6.83;;;5.50;;
17598;SDS011;8918;52.092;5.232;2023-04-24T03:47:01;6.60;;;5.50;;
17598;SDS011;8918;52.092;5.232;2023-04-24T03:49:27;7.13;;;5.70;;
17598;SDS011;8918;52.092;5.232;2023-04-24T03:51:52;7.37;;;5.00;;
17598;SDS011;8918;52.092;5.232;2023-04-24T03:54:18;6.80;;;5.20;;
17598;SDS011;8918;52.092;5.232;2023-04-24T03:56:44;6.90;;;4.70;;
17598;SDS011;8918;52.092;5.232;2023-04-24T03:59:10;4.60;;;4.07;;
17598;SDS011;8918;52.092;5.232;2023-04-24T04:01:35;5.53;;;4.43;;
17598;SDS011;8918;52.092;5.232;2023-04-24T04:04:02;6.07;;;4.40;;
17598;SDS011;8918;52.092;5.232;2023-04-24T04:06:28;5.40;;;4.40;;
17598;SDS011;8918;52.092;5.232;2023-04-24T04:08:55;5.50;;;4.50;;
17598;SDS011;8918;52.092;5.232;2023-04-24T04:11:21;6.33;;;4.57;;
17598;SDS011;8918;52.092;5.232;2023-04-24T04:13:47;6.63;;;4.73;;
17598;SDS011;8918;52.092;5.232;2023-04-24T04:16:13;5.63;;;4.90;;
17598;SDS011;8918;52.092;5.232;2023-04-24T04:18:38;6.87;;;5.23;;
17598;SDS011;8918;52.092;5.232;2023-04-24T04:21:04;8.83;;;4.87;;
17598;SDS011;8918;52.092;5.232;2023-04-24T04:23:31;6.00;;;4.70;;
17598;SDS011;8918;52.092;5.232;2023-04-24T04:25:57;7.87;;;5.60;;
17598;SDS011;8918;52.092;5.232;2023-04-24T04:28:22;8.00;;;5.70;;
17598;SDS011;8918;52.092;5.232;2023-04-24T04:30:49;7.03;;;5.40;;
17598;SDS011;8918;52.092;5.232;2023-04-24T04:33:19;7.27;;;5.50;;
17598;SDS011;8918;52.092;5.232;2023-04-24T04:35:45;7.20;;;5.80;;
17598;SDS011;8918;52.092;5.232;2023-04-24T04:38:13;7.90;;;5.77;;
17598;SDS011;8918;52.092;5.232;2023-04-24T04:40:39;7.40;;;5.67;;
17598;SDS011;8918;52.092;5.232;2023-04-24T04:43:05;9.17;;;5.63;;
17598;SDS011;8918;52.092;5.232;2023-04-24T04:45:31;6.80;;;5.30;;
17598;SDS011;8918;52.092;5.232;2023-04-24T04:47:58;8.00;;;5.83;;
17598;SDS011;8918;52.092;5.232;2023-04-24T04:50:25;8.17;;;5.80;;
17598;SDS011;8918;52.092;5.232;2023-04-24T04:52:51;7.40;;;5.73;;
17598;SDS011;8918;52.092;5.232;2023-04-24T04:55:20;7.93;;;5.90;;
17598;SDS011;8918;52.092;5.232;2023-04-24T04:57:46;7.87;;;5.73;;
17598;SDS011;8918;52.092;5.232;2023-04-24T05:00:11;8.87;;;5.70;;
17598;SDS011;8918;52.092;5.232;2023-04-24T05:02:38;7.30;;;5.90;;
17598;SDS011;8918;52.092;5.232;2023-04-24T05:05:04;7.43;;;6.10;;
17598;SDS011;8918;52.092;5.232;2023-04-24T05:07:30;8.80;;;6.10;;
17598;SDS011;8918;52.092;5.232;2023-04-24T05:09:56;9.57;;;6.07;;
17598;SDS011;8918;52.092;5.232;2023-04-24T05:12:22;7.83;;;5.77;;
17598;SDS011;8918;52.092;5.232;2023-04-24T05:14:47;8.17;;;5.73;;
17598;SDS011;8918;52.092;5.232;2023-04-24T05:17:13;7.90;;;5.33;;
17598;SDS011;8918;52.092;5.232;2023-04-24T05:19:38;7.20;;;5.13;;
17598;SDS011;8918;52.092;5.232;2023-04-24T05:22:04;9.50;;;6.10;;
17598;SDS011;8918;52.092;5.232;2023-04-24T05:24:31;7.63;;;4.97;;
17598;SDS011;8918;52.092;5.232;2023-04-24T05:26:58;7.33;;;4.40;;
17598;SDS011;8918;52.092;5.232;2023-04-24T05:29:23;7.33;;;4.50;;
17598;SDS011;8918;52.092;5.232;2023-04-24T05:31:51;7.10;;;4.37;;
17598;SDS011;8918;52.092;5.232;2023-04-24T05:34:16;6.57;;;4.27;;
17598;SDS011;8918;52.092;5.232;2023-04-24T05:36:42;8.77;;;4.57;;
17598;SDS011;8918;52.092;5.232;2023-04-24T05:39:08;6.37;;;4.27;;
17598;SDS011;8918;52.092;5.232;2023-04-24T05:41:33;6.17;;;3.50;;
17598;SDS011;8918;52.092;5.232;2023-04-24T05:43:59;3.77;;;2.47;;
17598;SDS011;8918;52.092;5.232;2023-04-24T05:46:25;3.10;;;2.10;;
17598;SDS011;8918;52.092;5.232;2023-04-24T05:48:50;2.53;;;1.40;;
17598;SDS011;8918;52.092;5.232;2023-04-24T05:51:16;1.23;;;1.03;;
17598;SDS011;8918;52.092;5.232;2023-04-24T05:53:41;2.17;;;1.00;;
17598;SDS011;8918;52.092;5.232;2023-04-24T05:56:07;1.40;;;0.97;;
17598;SDS011;8918;52.092;5.232;2023-04-24T05:58:33;1.53;;;1.00;;
17598;SDS011;8918;52.092;5.232;2023-04-24T06:00:58;2.23;;;1.20;;
17598;SDS011;8918;52.092;5.232;2023-04-24T06:03:26;1.67;;;1.07;;
17598;SDS011;8918;52.092;5.232;2023-04-24T06:05:52;2.07;;;1.17;;
17598;SDS011;8918;52.092;5.232;2023-04-24T06:08:18;1.30;;;1.10;;
17598;SDS011;8918;52.092;5.232;2023-04-24T06:10:43;2.97;;;1.33;;
17598;SDS011;8918;52.092;5.232;2023-04-24T06:13:10;3.30;;;1.30;;
17598;SDS011;8918;52.092;5.232;2023-04-24T06:15:36;1.40;;;1.20;;
17598;SDS011;8918;52.092;5.232;2023-04-24T06:18:02;1.50;;;1.30;;
17598;SDS011;8918;52.092;5.232;2023-04-24T06:20:27;2.07;;;1.40;;
17598;SDS011;8918;52.092;5.232;2023-04-24T06:22:53;2.10;;;1.60;;
17598;SDS011;8918;52.092;5.232;2023-04-24T06:25:19;2.90;;;2.30;;
17598;SDS011;8918;52.092;5.232;2023-04-24T06:27:45;4.30;;;3.33;;
17598;SDS011;8918;52.092;5.232;2023-04-24T06:30:11;7.17;;;5.20;;
17598;SDS011;8918;52.092;5.232;2023-04-24T06:32:37;10.30;;;6.57;;
17598;SDS011;8918;52.092;5.232;2023-04-24T06:35:03;12.33;;;7.50;;
17598;SDS011;8918;52.092;5.232;2023-04-24T06:37:29;14.27;;;7.90;;
17598;SDS011;8918;52.092;5.232;2023-04-24T06:39:55;15.00;;;8.77;;
17598;SDS011;8918;52.092;5.232;2023-04-24T06:42:20;14.67;;;9.73;;
17598;SDS011;8918;52.092;5.232;2023-04-24T06:44:46;15.00;;;10.23;;
17598;SDS011;8918;52.092;5.232;2023-04-24T06:47:12;16.43;;;10.70;;
17598;SDS011;8918;52.092;5.232;2023-04-24T06:49:38;17.20;;;10.80;;
17598;SDS011;8918;52.092;5.232;2023-04-24T06:52:05;18.87;;;11.40;;
17598;SDS011;8918;52.092;5.232;2023-04-24T06:54:31;19.93;;;11.67;;
17598;SDS011;8918;52.092;5.232;2023-04-24T06:56:58;19.80;;;12.20;;
17598;SDS011;8918;52.092;5.232;2023-04-24T06:59:25;19.00;;;11.47;;
17598;SDS011;8918;52.092;5.232;2023-04-24T07:01:52;18.00;;;11.00;;
17598;SDS011;8918;52.092;5.232;2023-04-24T07:04:17;21.37;;;11.30;;
17598;SDS011;8918;52.092;5.232;2023-04-24T07:06:46;17.53;;;11.23;;
17598;SDS011;8918;52.092;5.232;2023-04-24T07:09:14;16.57;;;10.63;;
17598;SDS011;8918;52.092;5.232;2023-04-24T07:11:41;19.07;;;10.17;;
17598;SDS011;8918;52.092;5.232;2023-04-24T07:14:07;19.30;;;10.63;;
17598;SDS011;8918;52.092;5.232;2023-04-24T07:16:32;18.67;;;10.90;;
17598;SDS011;8918;52.092;5.232;2023-04-24T07:18:58;16.27;;;10.83;;
17598;SDS011;8918;52.092;5.232;2023-04-24T07:21:25;17.90;;;10.73;;
17598;SDS011;8918;52.092;5.232;2023-04-24T07:23:52;20.40;;;9.47;;
17598;SDS011;8918;52.092;5.232;2023-04-24T07:26:18;18.63;;;10.20;;
17598;SDS011;8918;52.092;5.232;2023-04-24T07:28:45;15.80;;;10.57;;
17598;SDS011;8918;52.092;5.232;2023-04-24T07:31:11;18.33;;;10.70;;
17598;SDS011;8918;52.092;5.232;2023-04-24T07:33:36;19.70;;;10.73;;
17598;SDS011;8918;52.092;5.232;2023-04-24T07:36:02;19.47;;;10.53;;
17598;SDS011;8918;52.092;5.232;2023-04-24T07:38:29;22.80;;;10.43;;
17598;SDS011;8918;52.092;5.232;2023-04-24T07:40:55;19.47;;;10.23;;
17598;SDS011;8918;52.092;5.232;2023-04-24T07:43:20;22.97;;;9.13;;
17598;SDS011;8918;52.092;5.232;2023-04-24T07:45:48;22.87;;;9.30;;
17598;SDS011;8918;52.092;5.232;2023-04-24T07:48:17;20.07;;;7.50;;
17598;SDS011;8918;52.092;5.232;2023-04-24T07:50:43;23.93;;;8.13;;
17598;SDS011;8918;52.092;5.232;2023-04-24T07:53:10;22.77;;;8.53;;
17598;SDS011;8918;52.092;5.232;2023-04-24T07:55:36;26.23;;;8.70;;
17598;SDS011;8918;52.092;5.232;2023-04-24T07:58:01;21.43;;;7.80;;
17598;SDS011;8918;52.092;5.232;2023-04-24T08:00:27;19.93;;;7.17;;
17598;SDS011;8918;52.092;5.232;2023-04-24T08:02:53;21.73;;;7.73;;
17598;SDS011;8918;52.092;5.232;2023-04-24T08:05:18;23.33;;;7.07;;
17598;SDS011;8918;52.092;5.232;2023-04-24T08:07:45;18.30;;;6.87;;
17598;SDS011;8918;52.092;5.232;2023-04-24T08:10:13;20.73;;;6.90;;
17598;SDS011;8918;52.092;5.232;2023-04-24T08:12:39;19.67;;;5.50;;
17598;SDS011;8918;52.092;5.232;2023-04-24T08:15:05;20.10;;;5.40;;
17598;SDS011;8918;52.092;5.232;2023-04-24T08:17:33;17.53;;;5.10;;
17598;SDS011;8918;52.092;5.232;2023-04-24T08:20:00;14.20;;;4.67;;
17598;SDS011;8918;52.092;5.232;2023-04-24T08:22:29;13.40;;;3.80;;
17598;SDS011;8918;52.092;5.232;2023-04-24T08:24:55;15.87;;;4.40;;
17598;SDS011;8918;52.092;5.232;2023-04-24T08:27:22;21.20;;;4.13;;
17598;SDS011;8918;52.092;5.232;2023-04-24T08:29:48;13.37;;;3.77;;
17598;SDS011;8918;52.092;5.232;2023-04-24T08:32:14;16.87;;;4.07;;
17598;SDS011;8918;52.092;5.232;2023-04-24T08:34:39;17.43;;;3.70;;
17598;SDS011;8918;52.092;5.232;2023-04-24T08:37:05;11.10;;;3.07;;
17598;SDS011;8918;52.092;5.232;2023-04-24T08:39:31;11.63;;;3.10;;
17598;SDS011;8918;52.092;5.232;2023-04-24T08:41:56;8.13;;;2.90;;
17598;SDS011;8918;52.092;5.232;2023-04-24T08:44:34;7.87;;;2.70;;
17598;SDS011;8918;52.092;5.232;2023-04-24T08:47:04;7.93;;;2.80;;
17598;SDS011;8918;52.092;5.232;2023-04-24T08:49:31;13.27;;;2.80;;
17598;SDS011;8918;52.092;5.232;2023-04-24T08:51:57;12.67;;;2.90;;
17598;SDS011;8918;52.092;5.232;2023-04-24T08:54:24;10.67;;;2.80;;
17598;SDS011;8918;52.092;5.232;2023-04-24T08:56:50;9.97;;;2.80;;
17598;SDS011;8918;52.092;5.232;2023-04-24T08:59:18;8.77;;;3.40;;
17598;SDS011;8918;52.092;5.232;2023-04-24T09:01:45;9.67;;;3.10;;
17598;SDS011;8918;52.092;5.232;2023-04-24T09:04:12;8.80;;;2.73;;
17598;SDS011;8918;52.092;5.232;2023-04-24T09:06:41;8.03;;;3.10;;
17598;SDS011;8918;52.092;5.232;2023-04-24T09:09:07;8.53;;;2.80;;
17598;SDS011;8918;52.092;5.232;2023-04-24T09:11:36;11.83;;;2.90;;
17598;SDS011;8918;52.092;5.232;2023-04-24T09:14:02;10.03;;;2.80;;
17598;SDS011;8918;52.092;5.232;2023-04-24T09:16:29;9.90;;;3.10;;
17598;SDS011;8918;52.092;5.232;2023-04-24T09:18:58;10.53;;;2.77;;
17598;SDS011;8918;52.092;5.232;2023-04-24T09:21:24;13.60;;;3.30;;
17598;SDS011;8918;52.092;5.232;2023-04-24T09:24:00;13.50;;;3.23;;
17598;SDS011;8918;52.092;5.232;2023-04-24T09:26:30;11.13;;;2.90;;
17598;SDS011;8918;52.092;5.232;2023-04-24T09:28:57;13.07;;;2.83;;
17598;SDS011;8918;52.092;5.232;2023-04-24T09:31:23;8.53;;;2.70;;
17598;SDS011;8918;52.092;5.232;2023-04-24T09:33:55;11.67;;;2.77;;
17598;SDS011;8918;52.092;5.232;2023-04-24T09:36:27;8.67;;;2.30;;
17598;SDS011;8918;52.092;5.232;2023-04-24T09:38:55;9.87;;;2.50;;
17598;SDS011;8918;52.092;5.232;2023-04-24T09:41:23;6.53;;;2.47;;
17598;SDS011;8918;52.092;5.232;2023-04-24T09:43:49;7.87;;;2.33;;
17598;SDS011;8918;52.092;5.232;2023-04-24T09:46:15;8.63;;;2.53;;
17598;SDS011;8918;52.092;5.232;2023-04-24T09:48:44;4.13;;;2.60;;
17598;SDS011;8918;52.092;5.232;2023-04-24T09:51:09;5.63;;;2.47;;
17598;SDS011;8918;52.092;5.232;2023-04-24T09:53:36;8.47;;;2.20;;
17598;SDS011;8918;52.092;5.232;2023-04-24T09:56:08;7.60;;;2.73;;
17598;SDS011;8918;52.092;5.232;2023-04-24T09:58:38;4.73;;;1.83;;
17598;SDS011;8918;52.092;5.232;2023-04-24T10:01:04;7.87;;;1.97;;
17598;SDS011;8918;52.092;5.232;2023-04-24T10:03:30;5.53;;;1.70;;
17598;SDS011;8918;52.092;5.232;2023-04-24T10:06:00;7.03;;;2.00;;
17598;SDS011;8918;52.092;5.232;2023-04-24T10:08:26;5.90;;;1.70;;
17598;SDS011;8918;52.092;5.232;2023-04-24T10:10:59;8.57;;;2.13;;
17598;SDS011;8918;52.092;5.232;2023-04-24T10:13:25;6.53;;;2.17;;
17598;SDS011;8918;52.092;5.232;2023-04-24T10:15:50;10.23;;;1.90;;
17598;SDS011;8918;52.092;5.232;2023-04-24T10:18:16;3.87;;;1.63;;
17598;SDS011;8918;52.092;5.232;2023-04-24T10:20:43;7.77;;;1.87;;
17598;SDS011;8918;52.092;5.232;2023-04-24T10:23:10;3.97;;;1.13;;
17598;SDS011;8918;52.092;5.232;2023-04-24T10:25:36;4.77;;;1.50;;
17598;SDS011;8918;52.092;5.232;2023-04-24T10:28:04;5.30;;;1.40;;
17598;SDS011;8918;52.092;5.232;2023-04-24T10:30:30;3.33;;;1.13;;
17598;SDS011;8918;52.092;5.232;2023-04-24T10:33:00;3.10;;;1.20;;
17598;SDS011;8918;52.092;5.232;2023-04-24T10:35:27;3.17;;;0.87;;
17598;SDS011;8918;52.092;5.232;2023-04-24T10:40:34;4.13;;;1.20;;
17598;SDS011;8918;52.092;5.232;2023-04-24T10:43:04;4.97;;;1.43;;
17598;SDS011;8918;52.092;5.232;2023-04-24T10:45:33;4.20;;;1.30;;
17598;SDS011;8918;52.092;5.232;2023-04-24T10:48:08;3.13;;;1.03;;
17598;SDS011;8918;52.092;5.232;2023-04-24T10:50:50;3.73;;;0.90;;
17598;SDS011;8918;52.092;5.232;2023-04-24T10:53:17;3.00;;;0.90;;
17598;SDS011;8918;52.092;5.232;2023-04-24T10:55:52;5.17;;;1.20;;
17598;SDS011;8918;52.092;5.232;2023-04-24T10:58:39;2.63;;;0.80;;
17598;SDS011;8918;52.092;5.232;2023-04-24T11:01:08;4.53;;;1.10;;
17598;SDS011;8918;52.092;5.232;2023-04-24T11:03:35;4.43;;;1.40;;
17598;SDS011;8918;52.092;5.232;2023-04-24T11:06:05;4.20;;;1.27;;
17598;SDS011;8918;52.092;5.232;2023-04-24T11:08:43;5.40;;;1.43;;
17598;SDS011;8918;52.092;5.232;2023-04-24T11:11:11;2.70;;;1.20;;
17598;SDS011;8918;52.092;5.232;2023-04-24T11:24:22;8.67;;;1.70;;
17598;SDS011;8918;52.092;5.232;2023-04-24T11:26:52;5.37;;;1.50;;
17598;SDS011;8918;52.092;5.232;2023-04-24T11:29:20;5.03;;;1.60;;
17598;SDS011;8918;52.092;5.232;2023-04-24T11:31:46;4.27;;;1.53;;
17598;SDS011;8918;52.092;5.232;2023-04-24T11:34:16;4.50;;;1.63;;
17598;SDS011;8918;52.092;5.232;2023-04-24T11:36:43;4.37;;;1.00;;
17598;SDS011;8918;52.092;5.232;2023-04-24T11:39:10;3.73;;;0.87;;
17598;SDS011;8918;52.092;5.232;2023-04-24T11:41:36;2.23;;;0.80;;
17598;SDS011;8918;52.092;5.232;2023-04-24T11:44:03;2.50;;;0.83;;
17598;SDS011;8918;52.092;5.232;2023-04-24T11:46:31;4.80;;;1.00;;
17598;SDS011;8918;52.092;5.232;2023-04-24T11:48:58;2.97;;;0.90;;
17598;SDS011;8918;52.092;5.232;2023-04-24T11:51:24;2.90;;;1.17;;
17598;SDS011;8918;52.092;5.232;2023-04-24T11:53:51;3.70;;;0.97;;
17598;SDS011;8918;52.092;5.232;2023-04-24T11:56:23;2.83;;;0.90;;
17598;SDS011;8918;52.092;5.232;2023-04-24T11:58:51;3.00;;;0.90;;
17598;SDS011;8918;52.092;5.232;2023-04-24T12:01:19;6.07;;;1.17;;
17598;SDS011;8918;52.092;5.232;2023-04-24T12:03:48;3.60;;;1.30;;
17598;SDS011;8918;52.092;5.232;2023-04-24T12:06:15;3.10;;;1.30;;
17598;SDS011;8918;52.092;5.232;2023-04-24T12:08:41;2.77;;;1.00;;
17598;SDS011;8918;52.092;5.232;2023-04-24T12:11:10;4.50;;;1.23;;
17598;SDS011;8918;52.092;5.232;2023-04-24T12:13:36;5.23;;;1.30;;
17598;SDS011;8918;52.092;5.232;2023-04-24T12:16:03;3.53;;;1.10;;
17598;SDS011;8918;52.092;5.232;2023-04-24T12:18:33;4.63;;;1.43;;
17598;SDS011;8918;52.092;5.232;2023-04-24T12:23:44;4.00;;;1.50;;
17598;SDS011;8918;52.092;5.232;2023-04-24T12:26:19;2.77;;;1.37;;
17598;SDS011;8918;52.092;5.232;2023-04-24T12:28:47;4.17;;;1.43;;
17598;SDS011;8918;52.092;5.232;2023-04-24T12:31:20;5.90;;;1.57;;
17598;SDS011;8918;52.092;5.232;2023-04-24T12:33:49;4.70;;;1.63;;
17598;SDS011;8918;52.092;5.232;2023-04-24T12:36:15;6.30;;;2.00;;
17598;SDS011;8918;52.092;5.232;2023-04-24T12:41:21;10.10;;;1.83;;
17598;SDS011;8918;52.092;5.232;2023-04-24T12:43:51;8.13;;;2.23;;
17598;SDS011;8918;52.092;5.232;2023-04-24T12:46:18;5.83;;;1.80;;
17598;SDS011;8918;52.092;5.232;2023-04-24T12:48:44;6.70;;;1.90;;
17598;SDS011;8918;52.092;5.232;2023-04-24T12:51:10;5.87;;;1.60;;
17598;SDS011;8918;52.092;5.232;2023-04-24T12:53:35;8.80;;;2.30;;
17598;SDS011;8918;52.092;5.232;2023-04-24T12:56:01;9.03;;;2.23;;
17598;SDS011;8918;52.092;5.232;2023-04-24T12:58:26;7.27;;;2.00;;
17598;SDS011;8918;52.092;5.232;2023-04-24T13:00:52;4.70;;;2.00;;
17598;SDS011;8918;52.092;5.232;2023-04-24T13:03:18;8.80;;;2.43;;
17598;SDS011;8918;52.092;5.232;2023-04-24T13:05:43;8.10;;;1.87;;
17598;SDS011;8918;52.092;5.232;2023-04-24T13:08:09;9.03;;;2.10;;
17598;SDS011;8918;52.092;5.232;2023-04-24T13:10:37;7.60;;;2.33;;
17598;SDS011;8918;52.092;5.232;2023-04-24T13:13:03;6.30;;;2.23;;
17598;SDS011;8918;52.092;5.232;2023-04-24T13:15:29;7.40;;;2.33;;
17598;SDS011;8918;52.092;5.232;2023-04-24T13:17:54;5.90;;;2.53;;
17598;SDS011;8918;52.092;5.232;2023-04-24T13:20:20;7.87;;;2.93;;
17598;SDS011;8918;52.092;5.232;2023-04-24T13:22:45;9.67;;;3.13;;
17598;SDS011;8918;52.092;5.232;2023-04-24T13:25:14;11.13;;;2.30;;
17598;SDS011;8918;52.092;5.232;2023-04-24T13:27:41;11.23;;;2.83;;
17598;SDS011;8918;52.092;5.232;2023-04-24T13:30:07;8.33;;;2.87;;
17598;SDS011;8918;52.092;5.232;2023-04-24T13:32:33;9.93;;;2.83;;
17598;SDS011;8918;52.092;5.232;2023-04-24T13:35:00;9.47;;;3.10;;
17598;SDS011;8918;52.092;5.232;2023-04-24T13:37:27;10.57;;;2.73;;
17598;SDS011;8918;52.092;5.232;2023-04-24T13:39:52;14.53;;;2.70;;
17598;SDS011;8918;52.092;5.232;2023-04-24T13:42:18;7.80;;;2.43;;
17598;SDS011;8918;52.092;5.232;2023-04-24T13:44:45;7.33;;;2.40;;
17598;SDS011;8918;52.092;5.232;2023-04-24T13:47:11;9.43;;;3.50;;
17598;SDS011;8918;52.092;5.232;2023-04-24T13:49:36;13.70;;;3.10;;
17598;SDS011;8918;52.092;5.232;2023-04-24T13:52:02;6.57;;;2.50;;
17598;SDS011;8918;52.092;5.232;2023-04-24T13:54:28;10.57;;;2.97;;
17598;SDS011;8918;52.092;5.232;2023-04-24T13:56:55;10.07;;;2.70;;
17598;SDS011;8918;52.092;5.232;2023-04-24T13:59:22;8.57;;;2.80;;
17598;SDS011;8918;52.092;5.232;2023-04-24T14:01:50;7.47;;;2.63;;
17598;SDS011;8918;52.092;5.232;2023-04-24T14:04:15;9.10;;;2.53;;
17598;SDS011;8918;52.092;5.232;2023-04-24T14:06:41;7.53;;;2.50;;
17598;SDS011;8918;52.092;5.232;2023-04-24T14:09:07;7.67;;;2.67;;
17598;SDS011;8918;52.092;5.232;2023-04-24T14:11:33;6.27;;;2.37;;
17598;SDS011;8918;52.092;5.232;2023-04-24T14:13:59;11.60;;;3.00;;
17598;SDS011;8918;52.092;5.232;2023-04-24T14:16:25;11.13;;;2.70;;
17598;SDS011;8918;52.092;5.232;2023-04-24T14:18:50;10.87;;;3.10;;
17598;SDS011;8918;52.092;5.232;2023-04-24T14:21:16;9.73;;;2.57;;
17598;SDS011;8918;52.092;5.232;2023-04-24T14:23:42;9.90;;;3.20;;
17598;SDS011;8918;52.092;5.232;2023-04-24T14:26:07;8.63;;;3.27;;
17598;SDS011;8918;52.092;5.232;2023-04-24T14:28:33;9.97;;;2.53;;
17598;SDS011;8918;52.092;5.232;2023-04-24T14:30:59;11.03;;;3.40;;
17598;SDS011;8918;52.092;5.232;2023-04-24T14:33:24;8.47;;;2.90;;
17598;SDS011;8918;52.092;5.232;2023-04-24T14:35:50;11.03;;;3.13;;
17598;SDS011;8918;52.092;5.232;2023-04-24T14:38:15;6.97;;;2.50;;
17598;SDS011;8918;52.092;5.232;2023-04-24T14:40:41;5.63;;;2.30;;
17598;SDS011;8918;52.092;5.232;2023-04-24T14:43:07;8.97;;;3.07;;
17598;SDS011;8918;52.092;5.232;2023-04-24T14:45:32;7.97;;;2.90;;
17598;SDS011;8918;52.092;5.232;2023-04-24T14:47:58;7.73;;;2.90;;
17598;SDS011;8918;52.092;5.232;2023-04-24T14:50:23;8.40;;;2.90;;
17598;SDS011;8918;52.092;5.232;2023-04-24T14:52:52;11.57;;;3.20;;
17598;SDS011;8918;52.092;5.232;2023-04-24T14:55:19;8.27;;;3.00;;
17598;SDS011;8918;52.092;5.232;2023-04-24T14:57:46;7.83;;;3.10;;
17598;SDS011;8918;52.092;5.232;2023-04-24T15:00:12;9.90;;;3.10;;
17598;SDS011;8918;52.092;5.232;2023-04-24T15:02:38;10.73;;;3.03;;
17598;SDS011;8918;52.092;5.232;2023-04-24T15:05:06;9.40;;;3.07;;
17598;SDS011;8918;52.092;5.232;2023-04-24T15:07:33;8.20;;;3.10;;
17598;SDS011;8918;52.092;5.232;2023-04-24T15:10:00;10.33;;;3.50;;
17598;SDS011;8918;52.092;5.232;2023-04-24T15:12:26;9.40;;;3.40;;